General Aviation Weather

Text Reports

Enter one or more of the following location identifiers separated by a space:

Zip Code, Four-Character ICAO or Three-Character IATA airport codes.

METAR - Aviation Routine Weather Report
KFMM - Fort Morgan, Colorado
Updated at 9:55 AM GMT on July 31, 2016 (3:55 AM MDT):
METAR KFMM 310955Z AUTO 25003KT 10SM CLR 16/15 A2991 RMK AO2 T01570145
TAF - Terminal Area Forecast
KFMM - Fort Morgan, Colorado
Updated at 9:55 AM GMT on July 31, 2016 (3:55 AM MDT):
No TAF is currently available for this location.
Decoded:
No decoded TAF is available.
PIREP - Pilot Weather Report
KFMM - Fort Morgan, Colorado
Updated at 9:55 AM GMT on July 31, 2016 (3:55 AM MDT):
No PIREP is currently available for this location.
AIRMET - Airmens Meteorological Information
KFMM - Fort Morgan, Colorado
Updated at 9:55 AM GMT on July 31, 2016 (3:55 AM MDT):
No AIRMET is currently available for this location.
SIGMET - Significant Meteorological Information
KFMM - Fort Morgan, Colorado
Updated at 9:55 AM GMT on July 31, 2016 (3:55 AM MDT):
No SIGMET is currently available for this location.
NOTAM - Notice to Airmen
KFMM - Fort Morgan, Colorado
Updated at 9:55 AM GMT on July 31, 2016 (3:55 AM MDT):
No NOTAM is currently available for this location.
Forecast Area
KFMM - Fort Morgan, Colorado
Updated at 9:55 AM GMT on July 31, 2016 (3:55 AM MDT):
No NOTAM is currently available for this location.
Aviation Weather Maps